Kiowa, Oklahoma
Current Conditions -  °F | °C
As of 9:53 PM on Wednesday 26 Nov 2014 (Local Time) from KMLC Reporting Station
Clear Clear  
Wind Chill: 38°   Ceiling: Unl
Heat Index: 43°   Visibility: 10mi
Dew Point: 26°   Wind: 8mph
Humidity: 51%   Direction: 330°NNW
Pressure: 30.38"   Gusts: NA
Location:  34.72°N, 95.9°W
Report Text: KMLC 270353Z AUTO 33007KT 10SM CLR 06/M03 A3038 RMK AO2 SLP286 T00611033
Loading
Personal Weather Stations






























Interactive Weather Map New forecast layout! Learn more

10-Day Weather Forecast

Advertisements
Track Severe Weather on mobile